createdAt,value
2023-09-17T00:01:25.154Z,87.49
2023-09-17T00:03:53.870Z,87.31
2023-09-17T00:06:22.387Z,86.28
2023-09-17T00:08:49.754Z,86.61
2023-09-17T00:11:17.236Z,86.24
2023-09-17T00:13:44.681Z,86.69
2023-09-17T00:16:12.427Z,87.02
2023-09-17T00:18:40.046Z,87.14
2023-09-17T00:21:08.085Z,85.40
2023-09-17T00:23:35.611Z,85.89
2023-09-17T00:26:03.032Z,86.23
2023-09-17T00:28:30.414Z,87.66
2023-09-17T00:30:57.790Z,86.54
2023-09-17T00:33:25.181Z,87.21
2023-09-17T00:35:52.632Z,87.82
2023-09-17T00:38:19.843Z,86.74
2023-09-17T00:40:50.348Z,88.89
2023-09-17T00:43:17.772Z,89.72
2023-09-17T00:45:45.533Z,89.73
2023-09-17T00:48:14.304Z,89.63
2023-09-17T00:50:41.645Z,89.33
2023-09-17T00:53:09.898Z,89.00
2023-09-17T00:55:38.863Z,90.33
2023-09-17T00:58:07.474Z,90.67
2023-09-17T01:00:38.747Z,90.47
2023-09-17T01:03:08.451Z,92.60
2023-09-17T01:05:43.274Z,95.93
2023-09-17T01:08:11.733Z,94.72
2023-09-17T01:10:42.937Z,94.26
2023-09-17T01:13:11.151Z,93.88
2023-09-17T01:15:39.698Z,93.88
2023-09-17T01:18:09.278Z,92.61
2023-09-17T01:21:02.576Z,92.53
2023-09-17T01:23:53.080Z,93.29
2023-09-17T01:26:28.818Z,94.05
2023-09-17T01:28:56.205Z,94.22
2023-09-17T01:31:25.455Z,94.36
2023-09-17T01:33:53.674Z,94.76
2023-09-17T01:36:36.975Z,95.25
2023-09-17T01:39:14.137Z,95.19
2023-09-17T01:41:45.124Z,94.34
2023-09-17T01:44:13.375Z,100.00
2023-09-17T01:46:42.729Z,100.00
2023-09-17T01:49:11.881Z,100.00
2023-09-17T01:51:44.452Z,99.56
2023-09-17T01:54:12.509Z,100.00
2023-09-17T01:56:39.747Z,100.00
2023-09-17T01:59:07.065Z,98.17
2023-09-17T02:01:34.424Z,98.92
2023-09-17T02:04:01.811Z,98.58
2023-09-17T02:06:29.150Z,99.12
2023-09-17T02:08:56.418Z,100.00
2023-09-17T02:11:23.767Z,98.89
2023-09-17T02:13:51.238Z,99.69
2023-09-17T02:16:18.840Z,98.79
2023-09-17T02:18:46.363Z,97.97
2023-09-17T02:21:13.618Z,96.46
2023-09-17T02:23:43.478Z,96.74
2023-09-17T02:26:10.624Z,96.91
2023-09-17T02:28:37.910Z,96.15
2023-09-17T02:31:05.915Z,96.07
2023-09-17T02:33:33.251Z,96.69
2023-09-17T02:36:00.439Z,94.47
2023-09-17T02:38:28.120Z,95.00
2023-09-17T02:40:55.452Z,94.53
2023-09-17T02:43:23.005Z,95.10
2023-09-17T02:45:50.810Z,95.23
2023-09-17T02:48:17.740Z,94.96
2023-09-17T02:50:44.648Z,94.85
2023-09-17T02:53:11.501Z,92.35
2023-09-17T02:55:38.323Z,94.51
2023-09-17T02:58:05.300Z,93.86
2023-09-17T03:00:33.862Z,94.49
2023-09-17T03:03:01.295Z,93.90
2023-09-17T03:05:28.286Z,91.11
2023-09-17T03:07:55.287Z,92.93
2023-09-17T03:10:22.209Z,91.97
2023-09-17T03:12:51.137Z,91.79
2023-09-17T03:15:18.117Z,94.17
2023-09-17T03:17:45.000Z,94.78
2023-09-17T03:20:18.515Z,95.20
2023-09-17T03:22:46.222Z,95.38
2023-09-17T03:25:14.382Z,95.02
2023-09-17T03:27:44.955Z,95.03
2023-09-17T03:30:12.554Z,93.52
2023-09-17T03:32:49.616Z,96.30
2023-09-17T03:35:21.248Z,96.32
2023-09-17T03:37:48.280Z,95.45
2023-09-17T03:40:16.049Z,95.93
2023-09-17T03:42:44.518Z,96.79
2023-09-17T03:45:14.129Z,94.28
2023-09-17T03:47:42.271Z,96.57
2023-09-17T03:50:10.282Z,95.84
2023-09-17T03:52:39.286Z,95.23
2023-09-17T03:55:07.373Z,95.51
2023-09-17T03:57:36.130Z,98.77
2023-09-17T04:00:08.742Z,100.00
2023-09-17T04:02:36.822Z,100.00
2023-09-17T04:05:10.409Z,100.00
2023-09-17T04:07:38.184Z,100.00
2023-09-17T04:10:07.530Z,100.00
2023-09-17T04:12:36.069Z,100.00
2023-09-17T04:15:14.912Z,100.00
2023-09-17T04:17:41.903Z,100.00
2023-09-17T04:20:15.576Z,100.00
2023-09-17T04:22:43.706Z,100.00
2023-09-17T04:25:11.812Z,100.00
2023-09-17T04:27:42.448Z,100.00
2023-09-17T04:30:10.561Z,100.00
2023-09-17T04:32:41.808Z,100.00
2023-09-17T04:35:19.208Z,100.00
2023-09-17T04:37:49.307Z,100.00
2023-09-17T04:40:16.823Z,100.00
2023-09-17T04:42:44.665Z,100.00
2023-09-17T04:45:12.402Z,100.00
2023-09-17T04:47:40.541Z,100.00
2023-09-17T04:50:10.001Z,100.00
2023-09-17T04:52:38.028Z,100.00
2023-09-17T04:55:06.737Z,100.00
2023-09-17T04:57:33.571Z,100.00
2023-09-17T05:00:09.023Z,100.00
2023-09-17T05:02:35.849Z,100.00
2023-09-17T05:05:02.795Z,100.00
2023-09-17T05:07:29.702Z,100.00
2023-09-17T05:09:57.224Z,100.00
2023-09-17T05:12:24.128Z,100.00
2023-09-17T05:14:51.046Z,100.00
2023-09-17T05:17:18.954Z,100.00
2023-09-17T05:19:45.999Z,100.00
2023-09-17T05:22:12.928Z,100.00
2023-09-17T05:24:39.853Z,100.00
2023-09-17T05:27:06.942Z,100.00
2023-09-17T05:29:33.878Z,100.00
2023-09-17T05:32:00.837Z,100.00
2023-09-17T05:34:27.966Z,100.00
2023-09-17T05:36:55.501Z,100.00
2023-09-17T05:39:22.536Z,100.00
2023-09-17T05:41:49.374Z,100.00
2023-09-17T05:44:16.175Z,100.00
2023-09-17T05:46:43.317Z,100.00
2023-09-17T05:49:10.412Z,100.00
2023-09-17T05:51:37.292Z,100.00
2023-09-17T05:54:04.981Z,100.00
2023-09-17T05:56:31.808Z,100.00
2023-09-17T05:58:58.631Z,100.00
2023-09-17T06:01:25.671Z,100.00
2023-09-17T06:03:52.851Z,100.00
2023-09-17T06:06:20.395Z,100.00
2023-09-17T06:08:52.325Z,100.00
2023-09-17T06:11:21.330Z,100.00
2023-09-17T06:13:48.480Z,100.00
2023-09-17T06:16:16.244Z,100.00
2023-09-17T06:18:43.540Z,100.00
2023-09-17T06:21:10.482Z,100.00
2023-09-17T06:23:38.319Z,100.00
2023-09-17T06:26:10.138Z,100.00
2023-09-17T06:28:37.534Z,100.00
2023-09-17T06:31:18.214Z,100.00
2023-09-17T06:33:45.332Z,100.00
2023-09-17T06:36:12.297Z,100.00
2023-09-17T06:38:39.148Z,100.00
2023-09-17T06:41:08.282Z,99.67
2023-09-17T06:43:35.448Z,97.80
2023-09-17T06:46:02.538Z,97.14
2023-09-17T06:48:29.535Z,94.01
2023-09-17T06:50:57.337Z,93.29
2023-09-17T06:53:25.016Z,91.81
2023-09-17T06:55:52.019Z,89.19
2023-09-17T06:58:19.263Z,87.53
2023-09-17T07:00:47.270Z,88.07
2023-09-17T07:03:14.843Z,86.76
2023-09-17T07:05:41.965Z,85.99
2023-09-17T07:08:09.044Z,87.05
2023-09-17T07:10:36.660Z,84.90
2023-09-17T07:13:03.728Z,84.82
2023-09-17T07:15:31.758Z,84.92
2023-09-17T07:17:58.802Z,84.30
2023-09-17T07:20:25.707Z,82.08
2023-09-17T07:22:52.835Z,83.25
2023-09-17T07:25:19.711Z,82.41
2023-09-17T07:27:46.607Z,81.19
2023-09-17T07:30:14.082Z,77.27
2023-09-17T07:32:40.947Z,79.22
2023-09-17T07:35:09.592Z,78.35
2023-09-17T07:37:50.008Z,78.51
2023-09-17T07:40:19.095Z,78.84
2023-09-17T07:42:46.445Z,77.19
2023-09-17T07:45:14.670Z,74.93
2023-09-17T07:47:42.038Z,73.64
2023-09-17T07:50:08.971Z,74.93
2023-09-17T07:52:35.853Z,73.98
2023-09-17T07:55:03.095Z,73.00
2023-09-17T07:57:30.028Z,72.85
2023-09-17T07:59:56.898Z,75.13
2023-09-17T08:02:23.954Z,71.39
2023-09-17T08:04:50.996Z,71.71
2023-09-17T08:07:18.535Z,70.05
2023-09-17T08:09:45.440Z,71.18
2023-09-17T08:12:12.402Z,68.99
2023-09-17T08:14:46.479Z,67.37
2023-09-17T08:17:14.591Z,68.31
2023-09-17T08:19:44.988Z,68.87
2023-09-17T08:22:12.066Z,70.09
2023-09-17T08:24:38.835Z,68.37
2023-09-17T08:27:06.455Z,65.47
2023-09-17T08:29:35.182Z,64.78
2023-09-17T08:32:07.218Z,61.63
2023-09-17T08:34:34.143Z,62.08
2023-09-17T08:37:01.771Z,60.43
2023-09-17T08:39:29.142Z,60.77
2023-09-17T08:41:59.725Z,60.80
2023-09-17T08:44:29.281Z,58.65
2023-09-17T08:46:59.316Z,58.46
2023-09-17T08:49:26.616Z,54.54
2023-09-17T08:52:02.461Z,57.70
2023-09-17T08:54:45.220Z,56.60
2023-09-17T08:57:15.619Z,55.75
2023-09-17T08:59:44.620Z,57.48
2023-09-17T09:02:24.058Z,54.75
2023-09-17T09:04:52.591Z,54.35
2023-09-17T09:07:23.394Z,53.85
2023-09-17T09:09:52.699Z,54.04
2023-09-17T09:12:20.014Z,52.64
2023-09-17T09:14:48.558Z,52.90
2023-09-17T09:17:15.734Z,50.45
2023-09-17T09:19:43.320Z,50.52
2023-09-17T09:22:10.396Z,50.44
2023-09-17T09:24:57.603Z,51.53
2023-09-17T09:27:24.676Z,52.22
2023-09-17T09:29:51.646Z,52.29
2023-09-17T09:32:19.438Z,50.09
2023-09-17T09:34:48.351Z,47.84
2023-09-17T09:37:15.251Z,47.36
2023-09-17T09:39:44.472Z,46.86
2023-09-17T09:42:13.287Z,49.03
2023-09-17T09:44:40.093Z,45.85
2023-09-17T09:47:07.798Z,49.30
2023-09-17T09:49:45.106Z,47.69
2023-09-17T09:52:14.093Z,49.13
2023-09-17T09:54:42.278Z,45.16
2023-09-17T09:57:09.492Z,46.32
2023-09-17T09:59:38.054Z,47.14
2023-09-17T10:02:06.516Z,46.54
2023-09-17T10:04:39.033Z,48.06
2023-09-17T10:07:07.271Z,46.49
2023-09-17T10:09:34.489Z,47.52
2023-09-17T10:12:01.740Z,47.01
2023-09-17T10:14:28.840Z,46.29
2023-09-17T10:16:56.227Z,46.30
2023-09-17T10:19:25.018Z,43.75
2023-09-17T10:21:54.504Z,41.89
2023-09-17T10:24:22.125Z,43.82
2023-09-17T10:26:50.795Z,44.73
2023-09-17T10:29:19.465Z,44.99
2023-09-17T10:31:48.266Z,42.97
2023-09-17T10:34:17.379Z,42.54
2023-09-17T10:36:44.593Z,43.68
2023-09-17T10:39:15.083Z,45.46
2023-09-17T10:41:43.454Z,43.62
2023-09-17T10:44:15.206Z,39.73
2023-09-17T10:46:44.781Z,40.02
2023-09-17T10:49:12.707Z,41.64
2023-09-17T10:51:41.150Z,41.87
2023-09-17T10:54:08.168Z,42.28
2023-09-17T10:56:35.321Z,41.37
2023-09-17T10:59:03.878Z,42.26
2023-09-17T11:01:33.668Z,43.22
2023-09-17T11:04:05.475Z,42.02
2023-09-17T11:06:36.214Z,39.38
2023-09-17T11:09:05.981Z,39.08
2023-09-17T11:11:36.221Z,36.63
2023-09-17T11:14:05.761Z,37.07
2023-09-17T11:16:37.287Z,37.09
2023-09-17T11:19:06.877Z,36.42
2023-09-17T11:21:42.245Z,34.92
2023-09-17T11:24:13.937Z,34.93
2023-09-17T11:26:43.800Z,35.15
2023-09-17T11:29:12.113Z,33.41
2023-09-17T11:31:54.269Z,33.73
2023-09-17T11:34:22.707Z,31.85
2023-09-17T11:36:49.842Z,31.91
2023-09-17T11:39:17.774Z,31.22
2023-09-17T11:41:52.506Z,32.38
2023-09-17T11:44:22.272Z,32.48
2023-09-17T11:46:49.509Z,30.31
2023-09-17T11:49:17.085Z,31.11
2023-09-17T11:51:45.341Z,29.98
2023-09-17T11:54:17.505Z,30.80
2023-09-17T11:56:55.067Z,30.21
2023-09-17T11:59:23.658Z,31.25
2023-09-17T12:01:58.999Z,32.91
2023-09-17T12:04:29.418Z,37.16
2023-09-17T12:06:57.411Z,35.07
2023-09-17T12:09:34.243Z,31.87
2023-09-17T12:12:01.237Z,31.33
2023-09-17T12:14:28.383Z,36.52
2023-09-17T12:16:55.457Z,37.05
2023-09-17T12:19:22.725Z,33.96
2023-09-17T12:21:53.538Z,31.44
2023-09-17T12:24:27.598Z,30.87
2023-09-17T12:27:07.749Z,31.58
2023-09-17T12:29:35.504Z,31.74
2023-09-17T12:32:03.441Z,30.81
2023-09-17T12:34:30.806Z,31.21
2023-09-17T12:36:57.818Z,32.46
2023-09-17T12:39:25.050Z,30.94
2023-09-17T12:41:53.617Z,31.32
2023-09-17T12:44:20.635Z,31.74
2023-09-17T12:46:48.462Z,30.50
2023-09-17T12:49:16.441Z,32.53
2023-09-17T12:51:43.518Z,30.84
2023-09-17T12:54:10.969Z,30.16
2023-09-17T12:56:38.316Z,30.44
2023-09-17T12:59:05.445Z,31.98
2023-09-17T13:01:32.527Z,32.41
2023-09-17T13:04:05.845Z,32.86
2023-09-17T13:06:36.799Z,32.01
2023-09-17T13:09:04.199Z,33.53
2023-09-17T13:11:31.644Z,32.96
2023-09-17T13:13:59.669Z,32.19
2023-09-17T13:16:26.841Z,32.14
2023-09-17T13:18:53.729Z,31.86
2023-09-17T13:21:21.579Z,32.07
2023-09-17T13:23:49.291Z,34.04
2023-09-17T13:26:16.567Z,33.00
2023-09-17T13:28:43.574Z,32.20
2023-09-17T13:31:12.437Z,32.39
2023-09-17T13:33:40.274Z,33.78
2023-09-17T13:36:10.951Z,32.57
2023-09-17T13:38:42.862Z,32.31
2023-09-17T13:41:10.094Z,32.71
2023-09-17T13:43:37.064Z,31.86
2023-09-17T13:46:04.253Z,29.93
2023-09-17T13:48:31.718Z,28.21
2023-09-17T13:50:58.654Z,28.51
2023-09-17T13:53:25.520Z,27.21
2023-09-17T13:55:52.482Z,28.56
2023-09-17T13:58:19.726Z,30.48
2023-09-17T14:00:46.564Z,29.30
2023-09-17T14:03:15.482Z,29.46
2023-09-17T14:05:49.007Z,29.59
2023-09-17T14:08:16.175Z,30.73
2023-09-17T14:10:43.475Z,31.26
2023-09-17T14:13:10.675Z,31.32
2023-09-17T14:15:40.922Z,31.08
2023-09-17T14:18:08.894Z,30.68
2023-09-17T14:20:35.866Z,30.40
2023-09-17T14:23:04.454Z,28.74
2023-09-17T14:25:34.733Z,30.37
2023-09-17T14:28:01.758Z,30.83
2023-09-17T14:30:29.589Z,29.58
2023-09-17T14:32:57.408Z,30.15
2023-09-17T14:35:25.860Z,29.27
2023-09-17T14:37:53.271Z,29.40
2023-09-17T14:40:20.120Z,29.28
2023-09-17T14:42:51.041Z,31.44
2023-09-17T14:45:17.968Z,30.94
2023-09-17T14:47:45.173Z,27.86
2023-09-17T14:50:13.155Z,31.90
2023-09-17T14:52:40.373Z,32.58
2023-09-17T14:55:07.708Z,32.44
2023-09-17T14:57:37.209Z,30.01
2023-09-17T15:00:06.578Z,29.46
2023-09-17T15:02:34.516Z,28.15
2023-09-17T15:05:02.002Z,27.70
2023-09-17T15:07:29.328Z,28.22
2023-09-17T15:09:56.350Z,25.34
2023-09-17T15:12:23.439Z,29.70
2023-09-17T15:14:50.823Z,31.06
2023-09-17T15:17:17.922Z,27.03
2023-09-17T15:19:44.860Z,27.23
2023-09-17T15:22:11.909Z,27.61
2023-09-17T15:24:38.822Z,25.93
2023-09-17T15:27:05.687Z,27.20
2023-09-17T15:29:32.996Z,29.44
2023-09-17T15:31:59.984Z,30.90
2023-09-17T15:34:29.346Z,28.50
2023-09-17T15:36:59.903Z,28.56
2023-09-17T15:39:26.745Z,26.91
2023-09-17T15:41:58.676Z,28.42
2023-09-17T15:44:26.327Z,28.69
2023-09-17T15:46:53.299Z,30.20
2023-09-17T15:49:20.120Z,26.62
2023-09-17T15:51:46.960Z,26.64
2023-09-17T15:54:13.858Z,28.97
2023-09-17T15:56:42.405Z,29.43
2023-09-17T15:59:10.647Z,28.20
2023-09-17T16:01:39.056Z,28.02
2023-09-17T16:04:06.801Z,28.30
2023-09-17T16:06:33.987Z,28.84
2023-09-17T16:09:00.867Z,30.51
2023-09-17T16:11:27.845Z,28.08
2023-09-17T16:13:55.064Z,28.91
2023-09-17T16:16:22.290Z,31.68
2023-09-17T16:18:49.299Z,32.06
2023-09-17T16:21:16.523Z,32.30
2023-09-17T16:23:43.453Z,32.94
2023-09-17T16:26:10.346Z,32.06
2023-09-17T16:28:37.289Z,32.85
2023-09-17T16:31:04.439Z,32.20
2023-09-17T16:33:31.376Z,34.58
2023-09-17T16:36:01.113Z,34.79
2023-09-17T16:38:28.034Z,35.01
2023-09-17T16:40:55.209Z,35.61
2023-09-17T16:43:22.555Z,35.57
2023-09-17T16:45:49.543Z,34.39
2023-09-17T16:48:16.505Z,36.33
2023-09-17T16:50:43.928Z,36.28
2023-09-17T16:53:11.098Z,36.45
2023-09-17T16:55:39.401Z,37.48
2023-09-17T16:58:06.570Z,37.80
2023-09-17T17:00:33.996Z,38.38
2023-09-17T17:03:00.961Z,39.49
2023-09-17T17:05:27.976Z,40.42
2023-09-17T17:07:55.849Z,40.88
2023-09-17T17:10:22.972Z,40.98
2023-09-17T17:12:49.883Z,41.34
2023-09-17T17:15:16.871Z,42.05
2023-09-17T17:17:43.833Z,42.25
2023-09-17T17:20:11.125Z,42.92
2023-09-17T17:22:47.060Z,43.48
2023-09-17T17:25:14.253Z,44.59
2023-09-17T17:27:41.643Z,45.39
2023-09-17T17:30:11.651Z,45.81
2023-09-17T17:32:41.914Z,46.19
2023-09-17T17:35:09.778Z,48.32
2023-09-17T17:37:36.780Z,49.26
2023-09-17T17:40:03.961Z,49.97
2023-09-17T17:42:30.911Z,50.65
2023-09-17T17:44:58.345Z,51.14
2023-09-17T17:47:25.755Z,49.65
2023-09-17T17:49:55.181Z,49.90
2023-09-17T17:52:22.371Z,50.12
2023-09-17T17:54:50.079Z,49.79
2023-09-17T17:57:20.482Z,50.28
2023-09-17T17:59:47.481Z,50.72
2023-09-17T18:02:14.851Z,52.40
2023-09-17T18:04:42.448Z,54.17
2023-09-17T18:07:12.194Z,54.97
2023-09-17T18:09:39.372Z,55.41
2023-09-17T18:12:06.669Z,56.66
2023-09-17T18:14:34.033Z,57.37
2023-09-17T18:17:00.993Z,58.14
2023-09-17T18:19:27.970Z,58.60
2023-09-17T18:21:54.906Z,59.17
2023-09-17T18:24:25.302Z,60.04
2023-09-17T18:26:52.333Z,60.98
2023-09-17T18:29:27.957Z,61.70
2023-09-17T18:31:57.495Z,61.81
2023-09-17T18:34:25.329Z,62.05
2023-09-17T18:36:55.572Z,61.13
2023-09-17T18:39:23.701Z,61.99
2023-09-17T18:41:51.442Z,61.76
2023-09-17T18:44:19.506Z,62.99
2023-09-17T18:46:46.855Z,63.67
2023-09-17T18:49:21.840Z,64.17
2023-09-17T18:51:49.538Z,64.47
2023-09-17T18:54:16.627Z,64.74
2023-09-17T18:56:44.343Z,65.03
2023-09-17T18:59:15.058Z,65.13
2023-09-17T19:01:43.241Z,63.70
2023-09-17T19:04:10.109Z,63.88
2023-09-17T19:06:40.240Z,63.22
2023-09-17T19:09:07.391Z,62.98
2023-09-17T19:11:35.303Z,62.49
2023-09-17T19:14:07.016Z,62.87
2023-09-17T19:16:34.132Z,64.03
2023-09-17T19:19:01.766Z,64.37
2023-09-17T19:21:28.713Z,66.26
2023-09-17T19:23:58.958Z,67.83
2023-09-17T19:26:26.398Z,66.70
2023-09-17T19:28:53.417Z,66.99
2023-09-17T19:31:23.361Z,69.96
2023-09-17T19:33:51.953Z,71.37
2023-09-17T19:36:20.934Z,71.99
2023-09-17T19:38:49.357Z,72.34
2023-09-17T19:41:16.753Z,72.13
2023-09-17T19:43:43.829Z,72.82
2023-09-17T19:46:10.884Z,73.36
2023-09-17T19:48:37.778Z,72.54
2023-09-17T19:51:04.880Z,73.19
2023-09-17T19:53:31.747Z,74.12
2023-09-17T19:55:58.719Z,75.00
2023-09-17T19:58:25.734Z,75.53
2023-09-17T20:00:52.601Z,75.41
2023-09-17T20:03:22.753Z,75.13
2023-09-17T20:05:49.645Z,74.89
2023-09-17T20:08:16.530Z,74.96
2023-09-17T20:10:43.454Z,76.43
2023-09-17T20:13:10.370Z,76.30
2023-09-17T20:15:37.255Z,77.26
2023-09-17T20:18:04.647Z,78.24
2023-09-17T20:20:32.966Z,78.97
2023-09-17T20:22:59.834Z,79.24
2023-09-17T20:25:28.146Z,80.98
2023-09-17T20:28:01.313Z,80.92
2023-09-17T20:30:28.252Z,81.44
2023-09-17T20:32:56.779Z,81.56
2023-09-17T20:35:24.047Z,81.64
2023-09-17T20:37:51.061Z,80.88
2023-09-17T20:40:18.129Z,80.70
2023-09-17T20:42:45.063Z,81.83
2023-09-17T20:45:12.341Z,81.91
2023-09-17T20:47:39.668Z,82.43
2023-09-17T20:50:09.014Z,81.92
2023-09-17T20:52:35.977Z,82.64
2023-09-17T20:55:04.555Z,81.65
2023-09-17T20:57:32.154Z,80.50
2023-09-17T21:00:02.411Z,81.48
2023-09-17T21:02:29.613Z,83.26
2023-09-17T21:04:59.097Z,83.26
2023-09-17T21:07:26.683Z,81.81
2023-09-17T21:09:54.919Z,81.70
2023-09-17T21:12:22.336Z,81.65
2023-09-17T21:14:49.253Z,82.06
2023-09-17T21:17:16.890Z,81.69
2023-09-17T21:19:44.076Z,82.30
2023-09-17T21:22:12.596Z,82.06
2023-09-17T21:24:40.260Z,86.33
2023-09-17T21:27:07.403Z,88.08
2023-09-17T21:29:35.707Z,88.38
2023-09-17T21:32:03.817Z,89.42
2023-09-17T21:34:31.466Z,89.64
2023-09-17T21:36:58.370Z,91.22
2023-09-17T21:39:32.420Z,90.58
2023-09-17T21:42:00.060Z,90.90
2023-09-17T21:44:27.020Z,90.61
2023-09-17T21:46:54.931Z,89.40
2023-09-17T21:49:22.177Z,88.59
2023-09-17T21:51:49.409Z,88.77
2023-09-17T21:54:16.513Z,89.20
2023-09-17T21:56:43.638Z,88.91
2023-09-17T21:59:10.846Z,88.48
2023-09-17T22:01:38.363Z,89.21
2023-09-17T22:04:05.468Z,92.53
2023-09-17T22:06:32.467Z,92.95
2023-09-17T22:08:59.419Z,93.20
2023-09-17T22:11:26.608Z,92.53
2023-09-17T22:13:55.580Z,92.36
2023-09-17T22:16:22.602Z,91.43
2023-09-17T22:18:49.583Z,91.46
2023-09-17T22:21:16.530Z,91.76
2023-09-17T22:23:43.403Z,91.60
2023-09-17T22:26:10.343Z,91.94
2023-09-17T22:28:38.105Z,91.31
2023-09-17T22:31:13.137Z,92.02
2023-09-17T22:33:42.309Z,92.55
2023-09-17T22:36:10.967Z,91.96
2023-09-17T22:38:45.338Z,92.72
2023-09-17T22:41:18.381Z,91.85
2023-09-17T22:43:48.194Z,92.97
2023-09-17T22:46:16.264Z,93.05
2023-09-17T22:48:51.410Z,93.30
2023-09-17T22:51:19.181Z,94.11
2023-09-17T22:53:47.978Z,94.59
2023-09-17T22:56:15.919Z,95.26
2023-09-17T22:58:42.787Z,95.46
2023-09-17T23:01:10.074Z,96.16
2023-09-17T23:03:36.935Z,96.48
2023-09-17T23:06:04.175Z,96.93
2023-09-17T23:08:31.198Z,96.34
2023-09-17T23:11:01.658Z,96.47
2023-09-17T23:13:28.590Z,96.04
2023-09-17T23:15:57.139Z,96.33
2023-09-17T23:18:24.707Z,97.03
2023-09-17T23:20:52.760Z,96.94
2023-09-17T23:23:19.676Z,95.52
2023-09-17T23:25:46.857Z,96.32
2023-09-17T23:28:16.074Z,96.54
2023-09-17T23:30:42.862Z,97.58
2023-09-17T23:33:10.940Z,97.21
2023-09-17T23:35:37.815Z,97.53
2023-09-17T23:38:05.699Z,98.19
2023-09-17T23:40:33.292Z,97.80
2023-09-17T23:43:00.120Z,99.78
2023-09-17T23:45:27.321Z,100.00
2023-09-17T23:47:54.227Z,99.80
2023-09-17T23:50:21.205Z,98.66
2023-09-17T23:52:48.680Z,100.00
2023-09-17T23:55:15.940Z,100.00
2023-09-17T23:57:42.764Z,98.93
